createdAt,value
2022-10-02T00:02:33.922Z,2.10
2022-10-02T00:05:20.979Z,1.60
2022-10-02T00:07:52.438Z,3.30
2022-10-02T00:10:34.293Z,2.10
2022-10-02T00:13:04.413Z,3.60
2022-10-02T00:15:35.663Z,2.90
2022-10-02T00:18:11.380Z,3.50
2022-10-02T00:21:00.885Z,3.30
2022-10-02T00:23:43.149Z,3.60
2022-10-02T00:26:25.192Z,4.50
2022-10-02T00:28:58.946Z,4.80
2022-10-02T00:31:44.551Z,2.40
2022-10-02T00:34:38.159Z,4.50
2022-10-02T00:37:14.009Z,5.10
2022-10-02T00:39:44.540Z,3.80
2022-10-02T00:42:42.233Z,3.10
2022-10-02T00:45:20.725Z,3.50
2022-10-02T00:47:56.455Z,3.20
2022-10-02T00:50:41.869Z,3.50
2022-10-02T00:53:22.745Z,3.30
2022-10-02T00:56:01.450Z,2.70
2022-10-02T00:58:59.599Z,4.30
2022-10-02T01:01:48.039Z,3.60
2022-10-02T01:04:22.211Z,5.30
2022-10-02T01:06:49.047Z,3.90
2022-10-02T01:09:16.218Z,3.30
2022-10-02T01:11:44.578Z,4.30
2022-10-02T01:14:12.176Z,3.30
2022-10-02T01:16:41.554Z,4.30
2022-10-02T01:19:35.634Z,3.10
2022-10-02T01:22:27.342Z,3.00
2022-10-02T01:24:55.457Z,3.80
2022-10-02T01:27:23.808Z,4.30
2022-10-02T01:30:03.522Z,2.90
2022-10-02T01:32:31.740Z,3.50
2022-10-02T01:35:00.256Z,2.80
2022-10-02T01:37:32.312Z,2.40
2022-10-02T01:40:06.404Z,5.10
2022-10-02T01:42:33.972Z,2.80
2022-10-02T01:45:02.858Z,2.30
2022-10-02T01:47:50.388Z,4.40
2022-10-02T01:50:52.392Z,1.60
2022-10-02T01:53:25.464Z,3.00
2022-10-02T01:56:06.345Z,2.10
2022-10-02T01:59:00.499Z,2.60
2022-10-02T02:01:51.860Z,3.10
2022-10-02T02:04:27.475Z,2.30
2022-10-02T02:07:12.645Z,2.50
2022-10-02T02:09:49.113Z,1.20
2022-10-02T02:12:29.475Z,2.10
2022-10-02T02:15:33.198Z,1.80
2022-10-02T02:18:11.193Z,3.50
2022-10-02T02:20:52.686Z,3.20
2022-10-02T02:23:26.016Z,1.10
2022-10-02T02:25:59.169Z,1.60
2022-10-02T02:28:29.286Z,2.30
2022-10-02T02:30:59.578Z,5.10
2022-10-02T02:33:37.016Z,2.40
2022-10-02T02:36:12.849Z,2.30
2022-10-02T02:38:45.490Z,3.80
2022-10-02T02:41:22.129Z,2.30
2022-10-02T02:43:56.035Z,2.30
2022-10-02T02:47:04.557Z,3.40
2022-10-02T02:49:59.069Z,2.60
2022-10-02T02:52:35.738Z,3.50
2022-10-02T02:55:15.163Z,2.50
2022-10-02T02:57:49.586Z,3.40
2022-10-02T03:00:19.371Z,2.20
2022-10-02T03:02:46.239Z,2.60
2022-10-02T03:05:15.474Z,2.50
2022-10-02T03:07:54.445Z,2.90
2022-10-02T03:10:30.726Z,3.20
2022-10-02T03:13:42.744Z,3.50
2022-10-02T03:16:29.045Z,3.50
2022-10-02T03:19:17.689Z,2.60
2022-10-02T03:22:11.597Z,4.60
2022-10-02T03:24:47.538Z,3.40
2022-10-02T03:27:34.825Z,4.40
2022-10-02T03:30:09.151Z,3.80
2022-10-02T03:32:38.994Z,4.10
2022-10-02T03:35:10.953Z,4.50
2022-10-02T03:37:39.646Z,4.00
2022-10-02T03:40:07.657Z,3.60
2022-10-02T03:42:35.591Z,3.20
2022-10-02T03:45:03.555Z,2.60
2022-10-02T03:47:30.411Z,2.60
2022-10-02T03:49:57.346Z,2.50
2022-10-02T03:52:24.807Z,2.90
2022-10-02T03:55:03.411Z,3.50
2022-10-02T03:57:33.562Z,2.80
2022-10-02T04:00:07.153Z,4.10
2022-10-02T04:02:43.785Z,6.30
2022-10-02T04:05:38.727Z,4.60
2022-10-02T04:08:18.996Z,5.50
2022-10-02T04:11:10.938Z,4.10
2022-10-02T04:13:43.498Z,4.20
2022-10-02T04:16:10.314Z,3.00
2022-10-02T04:18:44.864Z,4.80
2022-10-02T04:21:34.899Z,5.40
2022-10-02T04:24:25.055Z,7.80
2022-10-02T04:27:06.843Z,5.70
2022-10-02T04:29:43.115Z,4.70
2022-10-02T04:32:32.404Z,5.00
2022-10-02T04:34:59.632Z,5.40
2022-10-02T04:38:00.382Z,4.50
2022-10-02T04:41:02.760Z,5.40
2022-10-02T04:44:00.538Z,7.00
2022-10-02T04:46:52.255Z,5.20
2022-10-02T04:49:29.132Z,4.30
2022-10-02T04:52:08.260Z,5.60
2022-10-02T04:54:53.869Z,4.60
2022-10-02T04:57:39.437Z,5.70
2022-10-02T05:00:24.544Z,6.00
2022-10-02T05:03:19.718Z,4.90
2022-10-02T05:05:55.470Z,4.90
2022-10-02T05:08:28.408Z,5.00
2022-10-02T05:11:15.989Z,6.30
2022-10-02T05:14:17.336Z,8.40
2022-10-02T05:17:11.636Z,5.90
2022-10-02T05:20:16.989Z,5.90
2022-10-02T05:23:02.161Z,6.60
2022-10-02T05:25:53.465Z,5.30
2022-10-02T05:28:56.362Z,6.80
2022-10-02T05:31:55.573Z,5.80
2022-10-02T05:34:30.806Z,6.00
2022-10-02T05:37:26.598Z,5.40
2022-10-02T05:40:08.734Z,6.00
2022-10-02T05:42:43.703Z,5.30
2022-10-02T05:45:25.893Z,5.70
2022-10-02T05:48:03.080Z,8.20
2022-10-02T05:50:35.331Z,5.90
2022-10-02T05:53:30.944Z,10.70
2022-10-02T05:56:15.812Z,6.20
2022-10-02T05:59:44.813Z,5.90
2022-10-02T06:02:38.210Z,7.30
2022-10-02T06:05:18.439Z,6.50
2022-10-02T06:07:49.891Z,7.20
2022-10-02T06:10:21.468Z,7.80
2022-10-02T06:12:57.003Z,7.30
2022-10-02T06:15:49.448Z,6.10
2022-10-02T06:18:22.130Z,5.30
2022-10-02T06:21:31.635Z,6.60
2022-10-02T06:24:04.461Z,8.30
2022-10-02T06:26:54.469Z,8.70
2022-10-02T06:29:27.549Z,5.60
2022-10-02T06:32:12.730Z,8.90
2022-10-02T06:34:39.726Z,9.70
2022-10-02T06:37:09.302Z,8.70
2022-10-02T06:39:59.767Z,13.10
2022-10-02T06:42:29.591Z,9.10
2022-10-02T06:45:24.440Z,5.00
2022-10-02T06:48:05.117Z,5.10
2022-10-02T06:50:37.978Z,5.30
2022-10-02T06:53:26.183Z,5.90
2022-10-02T06:56:31.578Z,7.70
2022-10-02T06:59:40.380Z,6.40
2022-10-02T07:02:35.057Z,4.50
2022-10-02T07:05:14.089Z,5.10
2022-10-02T07:08:02.739Z,5.40
2022-10-02T07:10:33.767Z,5.90
2022-10-02T07:13:22.754Z,9.80
2022-10-02T07:16:43.835Z,6.50
2022-10-02T07:19:24.764Z,7.20
2022-10-02T07:22:42.975Z,4.30
2022-10-02T07:25:35.646Z,7.00
2022-10-02T07:28:05.478Z,5.60
2022-10-02T07:31:06.403Z,7.10
2022-10-02T07:33:40.404Z,5.20
2022-10-02T07:36:12.986Z,7.00
2022-10-02T07:38:55.200Z,5.50
2022-10-02T07:41:25.106Z,6.60
2022-10-02T07:44:05.773Z,7.10
2022-10-02T07:46:35.766Z,9.90
2022-10-02T07:49:21.377Z,8.90
2022-10-02T07:52:15.714Z,8.50
2022-10-02T07:55:04.123Z,7.10
2022-10-02T07:57:39.869Z,7.90
2022-10-02T08:00:16.092Z,6.70
2022-10-02T08:02:49.189Z,6.10
2022-10-02T08:05:25.391Z,4.30
2022-10-02T08:07:57.862Z,6.10
2022-10-02T08:10:31.170Z,5.60
2022-10-02T08:13:20.344Z,10.10
2022-10-02T08:15:54.673Z,5.90
2022-10-02T08:18:34.522Z,10.80
2022-10-02T08:21:08.009Z,7.90
2022-10-02T08:23:38.019Z,6.50
2022-10-02T08:26:31.785Z,8.10
2022-10-02T08:29:07.854Z,9.90
2022-10-02T08:31:35.049Z,7.30
2022-10-02T08:34:22.229Z,5.60
2022-10-02T08:37:54.407Z,7.90
2022-10-02T08:41:07.641Z,5.00
2022-10-02T08:43:53.550Z,7.80
2022-10-02T08:46:58.400Z,9.40
2022-10-02T08:49:53.074Z,4.80
2022-10-02T08:52:29.226Z,12.70
2022-10-02T08:55:23.539Z,9.70
2022-10-02T09:00:25.104Z,7.80
2022-10-02T09:03:17.131Z,6.70
2022-10-02T09:06:15.033Z,5.90
2022-10-02T09:09:03.662Z,5.90
2022-10-02T09:12:21.073Z,6.60
2022-10-02T09:14:56.839Z,7.30
2022-10-02T09:17:55.478Z,5.40
2022-10-02T09:20:42.453Z,5.90
2022-10-02T09:23:40.419Z,10.00
2022-10-02T09:26:19.764Z,5.40
2022-10-02T09:29:26.236Z,9.20
2022-10-02T09:32:12.019Z,7.30
2022-10-02T09:35:01.809Z,13.60
2022-10-02T09:37:34.691Z,8.30
2022-10-02T09:40:26.634Z,8.70
2022-10-02T09:43:15.789Z,4.60
2022-10-02T09:46:13.935Z,6.90
2022-10-02T09:49:02.940Z,4.10
2022-10-02T09:51:47.600Z,3.50
2022-10-02T09:54:57.352Z,6.70
2022-10-02T09:57:39.242Z,4.10
2022-10-02T10:00:23.086Z,7.70
2022-10-02T10:03:46.967Z,5.70
2022-10-02T10:06:39.122Z,5.70
2022-10-02T10:09:06.315Z,2.00
2022-10-02T10:11:57.379Z,6.70
2022-10-02T10:14:48.689Z,8.30
2022-10-02T10:17:56.329Z,7.60
2022-10-02T10:21:00.958Z,8.30
2022-10-02T10:23:52.308Z,6.60
2022-10-02T10:26:38.267Z,6.60
2022-10-02T10:29:27.937Z,6.50
2022-10-02T10:32:03.827Z,6.60
2022-10-02T10:35:13.138Z,5.00
2022-10-02T10:38:32.825Z,6.10
2022-10-02T10:41:49.854Z,7.60
2022-10-02T10:45:10.237Z,6.80
2022-10-02T10:47:53.574Z,7.30
2022-10-02T10:50:31.766Z,5.00
2022-10-02T10:53:16.746Z,7.70
2022-10-02T10:56:22.295Z,4.30
2022-10-02T10:58:55.385Z,2.90
2022-10-02T11:01:37.535Z,2.80
2022-10-02T11:04:13.032Z,3.30
2022-10-02T11:07:10.394Z,2.30
2022-10-02T11:10:22.693Z,3.30
2022-10-02T11:12:53.334Z,7.20
2022-10-02T11:16:06.965Z,3.20
2022-10-02T11:19:03.210Z,4.60
2022-10-02T11:21:30.261Z,3.60
2022-10-02T11:24:09.802Z,2.70
2022-10-02T11:26:50.369Z,7.10
2022-10-02T11:29:50.797Z,6.80
2022-10-02T11:32:42.669Z,5.80
2022-10-02T11:35:22.773Z,8.90
2022-10-02T11:38:26.386Z,6.20
2022-10-02T11:41:35.970Z,3.20
2022-10-02T11:44:16.945Z,3.80
2022-10-02T11:46:57.279Z,2.80
2022-10-02T11:49:43.497Z,3.20
2022-10-02T11:52:48.129Z,2.70
2022-10-02T11:55:34.299Z,4.30
2022-10-02T11:58:04.735Z,3.90
2022-10-02T12:01:09.832Z,3.40
2022-10-02T12:03:36.627Z,2.70
2022-10-02T12:06:07.866Z,2.70
2022-10-02T12:09:16.684Z,1.70
2022-10-02T12:11:43.645Z,4.60
2022-10-02T12:14:32.026Z,3.70
2022-10-02T12:17:22.696Z,5.10
2022-10-02T12:20:29.098Z,4.20
2022-10-02T12:23:23.460Z,2.40
2022-10-02T12:26:31.737Z,5.20
2022-10-02T12:29:40.393Z,2.90
2022-10-02T12:32:23.015Z,5.30
2022-10-02T12:35:02.938Z,3.80
2022-10-02T12:37:47.825Z,5.10
2022-10-02T12:40:37.206Z,3.20
2022-10-02T12:43:13.472Z,4.00
2022-10-02T12:45:51.681Z,6.30
2022-10-02T12:48:30.774Z,7.00
2022-10-02T12:51:20.904Z,4.10
2022-10-02T12:54:05.765Z,4.10
2022-10-02T12:56:45.410Z,4.30
2022-10-02T12:59:30.491Z,3.10
2022-10-02T13:02:05.811Z,5.20
2022-10-02T13:05:08.038Z,7.10
2022-10-02T13:08:04.055Z,6.80
2022-10-02T13:10:46.053Z,6.50
2022-10-02T13:13:37.968Z,4.30
2022-10-02T13:16:28.065Z,5.90
2022-10-02T13:19:15.599Z,5.40
2022-10-02T13:22:17.983Z,7.10
2022-10-02T13:24:47.876Z,5.90
2022-10-02T13:27:18.311Z,2.50
2022-10-02T13:30:30.523Z,4.10
2022-10-02T13:33:21.024Z,2.40
2022-10-02T13:36:12.638Z,6.50
2022-10-02T13:38:54.534Z,5.70
2022-10-02T13:41:43.553Z,4.80
2022-10-02T13:44:20.610Z,2.50
2022-10-02T13:47:15.396Z,2.90
2022-10-02T13:50:01.176Z,3.50
2022-10-02T13:53:02.350Z,3.00
2022-10-02T13:55:41.264Z,3.10
2022-10-02T13:58:27.351Z,2.60
2022-10-02T14:01:26.903Z,4.20
2022-10-02T14:04:05.035Z,3.60
2022-10-02T14:06:41.277Z,2.10
2022-10-02T14:09:46.584Z,1.90
2022-10-02T14:12:40.975Z,2.00
2022-10-02T14:15:20.920Z,2.80
2022-10-02T14:18:15.840Z,2.60
2022-10-02T14:20:48.816Z,4.40
2022-10-02T14:23:54.261Z,3.70
2022-10-02T14:26:42.715Z,2.30
2022-10-02T14:29:28.605Z,3.10
2022-10-02T14:32:04.579Z,5.40
2022-10-02T14:34:34.392Z,4.40
2022-10-02T14:37:26.112Z,3.00
2022-10-02T14:39:56.813Z,5.00
2022-10-02T14:42:57.634Z,3.70
2022-10-02T14:45:39.727Z,2.70
2022-10-02T14:48:40.943Z,8.00
2022-10-02T14:51:13.623Z,4.90
2022-10-02T14:54:11.494Z,5.00
2022-10-02T14:57:05.161Z,4.10
2022-10-02T15:00:05.598Z,3.50
2022-10-02T15:03:02.347Z,7.20
2022-10-02T15:05:56.340Z,6.20
2022-10-02T15:08:32.133Z,4.80
2022-10-02T15:11:00.575Z,5.60
2022-10-02T15:13:39.495Z,6.80
2022-10-02T15:16:38.394Z,5.30
2022-10-02T15:19:20.256Z,5.10
2022-10-02T15:21:52.190Z,5.90
2022-10-02T15:24:39.103Z,4.10
2022-10-02T15:27:23.728Z,3.50
2022-10-02T15:30:05.725Z,3.00
2022-10-02T15:32:39.383Z,7.20
2022-10-02T15:37:45.103Z,5.00
2022-10-02T15:40:35.017Z,3.10
2022-10-02T15:43:11.894Z,3.80
2022-10-02T15:45:47.911Z,3.20
2022-10-02T15:48:33.434Z,4.60
2022-10-02T15:51:32.350Z,3.70
2022-10-02T15:54:44.345Z,4.70
2022-10-02T15:57:33.905Z,6.70
2022-10-02T16:00:25.631Z,6.70
2022-10-02T16:03:22.078Z,7.50
2022-10-02T16:05:54.850Z,7.60
2022-10-02T16:08:43.762Z,6.20
2022-10-02T16:11:22.526Z,4.50
2022-10-02T16:14:40.253Z,6.20
2022-10-02T16:17:28.298Z,7.10
2022-10-02T16:20:13.886Z,8.00
2022-10-02T16:22:53.538Z,5.80
2022-10-02T16:25:23.554Z,6.40
2022-10-02T16:28:18.188Z,6.30
2022-10-02T16:30:51.287Z,11.20
2022-10-02T16:33:31.630Z,10.30
2022-10-02T16:36:19.748Z,6.00
2022-10-02T16:38:49.963Z,15.10
2022-10-02T16:41:30.752Z,8.00
2022-10-02T16:44:08.953Z,7.60
2022-10-02T16:47:07.115Z,6.10
2022-10-02T16:49:51.680Z,8.40
2022-10-02T16:52:24.572Z,7.80
2022-10-02T16:55:19.679Z,6.90
2022-10-02T16:58:01.986Z,5.60
2022-10-02T17:00:39.134Z,7.90
2022-10-02T17:03:28.650Z,9.40
2022-10-02T17:06:26.322Z,10.70
2022-10-02T17:09:27.459Z,12.90
2022-10-02T17:12:25.614Z,13.30
2022-10-02T17:15:01.911Z,8.20
2022-10-02T17:17:28.646Z,9.60
2022-10-02T17:20:01.637Z,13.20
2022-10-02T17:22:51.219Z,11.00
2022-10-02T17:25:43.279Z,15.80
2022-10-02T17:28:23.476Z,14.70
2022-10-02T17:31:09.473Z,15.00
2022-10-02T17:33:44.392Z,15.50
2022-10-02T17:36:30.227Z,15.50
2022-10-02T17:39:06.182Z,20.60
2022-10-02T17:42:06.212Z,19.60
2022-10-02T17:44:36.327Z,12.50
2022-10-02T17:47:29.391Z,12.60
2022-10-02T17:50:42.932Z,9.70
2022-10-02T17:53:46.745Z,9.20
2022-10-02T17:56:35.590Z,6.10
2022-10-02T17:59:28.661Z,6.80
2022-10-02T18:02:27.714Z,9.80
2022-10-02T18:05:19.288Z,7.70
2022-10-02T18:07:51.924Z,9.30
2022-10-02T18:11:01.245Z,8.90
2022-10-02T18:13:43.202Z,9.10
2022-10-02T18:16:28.342Z,7.20
2022-10-02T18:19:37.009Z,10.40
2022-10-02T18:22:12.971Z,9.70
2022-10-02T18:24:59.137Z,8.70
2022-10-02T18:27:41.773Z,9.80
2022-10-02T18:30:21.980Z,12.50
2022-10-02T18:33:07.934Z,12.50
2022-10-02T18:35:50.647Z,11.00
2022-10-02T18:38:51.509Z,13.10
2022-10-02T18:41:46.699Z,8.10
2022-10-02T18:44:34.446Z,9.50
2022-10-02T18:47:19.503Z,10.10
2022-10-02T18:49:52.698Z,10.00
2022-10-02T18:52:56.538Z,13.30
2022-10-02T18:55:56.533Z,11.10
2022-10-02T18:59:01.880Z,6.20
2022-10-02T19:01:45.650Z,8.20
2022-10-02T19:04:27.719Z,6.20
2022-10-02T19:07:19.049Z,9.30
2022-10-02T19:09:47.107Z,14.00
2022-10-02T19:12:22.238Z,11.60
2022-10-02T19:14:55.487Z,12.80
2022-10-02T19:17:25.876Z,13.80
2022-10-02T19:19:53.639Z,9.40
2022-10-02T19:22:23.260Z,10.00
2022-10-02T19:25:07.052Z,8.90
2022-10-02T19:27:36.595Z,7.80
2022-10-02T19:30:21.063Z,9.20
2022-10-02T19:32:50.358Z,11.40
2022-10-02T19:35:25.294Z,10.90
2022-10-02T19:37:58.999Z,8.40
2022-10-02T19:40:33.118Z,7.40
2022-10-02T19:43:24.221Z,6.30
2022-10-02T19:45:56.271Z,8.30
2022-10-02T19:48:26.353Z,7.00
2022-10-02T19:50:59.126Z,7.60
2022-10-02T19:53:38.330Z,5.70
2022-10-02T19:56:17.466Z,4.80
2022-10-02T19:58:49.024Z,5.90
2022-10-02T20:01:25.039Z,4.50
2022-10-02T20:04:00.635Z,8.00
2022-10-02T20:06:34.231Z,5.70
2022-10-02T20:09:12.258Z,4.70
2022-10-02T20:11:46.347Z,5.50
2022-10-02T20:14:22.818Z,10.80
2022-10-02T20:17:08.205Z,8.70
2022-10-02T20:19:40.717Z,7.10
2022-10-02T20:22:29.394Z,7.10
2022-10-02T20:25:20.237Z,6.60
2022-10-02T20:28:16.874Z,7.50
2022-10-02T20:30:50.033Z,8.10
2022-10-02T20:33:24.807Z,7.50
2022-10-02T20:35:57.179Z,7.00
2022-10-02T20:38:45.737Z,5.10
2022-10-02T20:41:24.053Z,8.40
2022-10-02T20:43:56.152Z,4.80
2022-10-02T20:46:44.462Z,7.00
2022-10-02T20:49:45.536Z,6.00
2022-10-02T20:53:01.748Z,5.50
2022-10-02T20:55:36.866Z,8.00
2022-10-02T20:58:25.442Z,7.90
2022-10-02T21:01:14.394Z,7.90
2022-10-02T21:03:44.400Z,8.90
2022-10-02T21:06:42.082Z,7.60
2022-10-02T21:09:26.818Z,7.80
2022-10-02T21:12:10.260Z,5.30
2022-10-02T21:14:52.873Z,5.40
2022-10-02T21:17:28.834Z,6.50
2022-10-02T21:20:27.524Z,6.80
2022-10-02T21:23:31.745Z,6.20
2022-10-02T21:26:32.584Z,7.30
2022-10-02T21:29:16.217Z,5.60
2022-10-02T21:32:11.024Z,6.30
2022-10-02T21:34:44.832Z,4.90
2022-10-02T21:37:17.301Z,5.70
2022-10-02T21:39:58.362Z,6.70
2022-10-02T21:42:43.950Z,6.30
2022-10-02T21:45:16.755Z,6.90
2022-10-02T21:48:05.509Z,5.20
2022-10-02T21:51:11.680Z,4.20
2022-10-02T21:53:41.393Z,4.30
2022-10-02T21:56:43.874Z,5.90
2022-10-02T21:59:22.903Z,6.40
2022-10-02T22:02:08.150Z,3.90
2022-10-02T22:04:51.613Z,6.50
2022-10-02T22:07:31.046Z,4.30
2022-10-02T22:10:28.420Z,5.00
2022-10-02T22:13:07.541Z,6.30
2022-10-02T22:16:05.768Z,6.20
2022-10-02T22:18:48.630Z,4.20
2022-10-02T22:21:34.423Z,6.70
2022-10-02T22:24:18.783Z,3.90
2022-10-02T22:27:12.047Z,6.20
2022-10-02T22:29:51.873Z,6.30
2022-10-02T22:33:01.035Z,6.70
2022-10-02T22:35:33.920Z,6.90
2022-10-02T22:38:04.357Z,8.30
2022-10-02T22:41:01.921Z,8.70
2022-10-02T22:43:48.103Z,6.00
2022-10-02T22:46:43.758Z,11.00
2022-10-02T22:49:51.954Z,11.80
2022-10-02T22:52:26.061Z,12.60
2022-10-02T22:55:00.111Z,9.20
2022-10-02T22:57:49.876Z,14.40
2022-10-02T23:00:16.914Z,17.50
2022-10-02T23:02:47.682Z,17.50
2022-10-02T23:05:25.608Z,15.70
2022-10-02T23:08:01.581Z,12.10
2022-10-02T23:10:44.124Z,18.20
2022-10-02T23:13:27.912Z,13.60
2022-10-02T23:16:30.441Z,9.60
2022-10-02T23:19:25.138Z,6.30
2022-10-02T23:22:17.322Z,7.60
2022-10-02T23:25:00.001Z,9.70
2022-10-02T23:27:40.041Z,13.90
2022-10-02T23:30:18.169Z,12.60
2022-10-02T23:33:13.266Z,9.60
2022-10-02T23:35:48.205Z,11.60
2022-10-02T23:38:22.928Z,11.80
2022-10-02T23:41:36.884Z,13.30
2022-10-02T23:44:22.264Z,11.60
2022-10-02T23:46:49.453Z,12.20
2022-10-02T23:49:18.955Z,11.90
2022-10-02T23:51:55.114Z,11.30
2022-10-02T23:54:51.551Z,13.20
2022-10-02T23:57:38.772Z,12.20
